Time;durP1;ratioP1;P1;durP2;ratioP2;P2;SDS_P1;SDS_P2;PMS_P1;PMS_P2;Temp;Humidity;BMP_temperature;BMP_pressure;BME280_temperature;BME280_humidity;BME280_pressure;Samples;Min_cycle;Max_cycle;Signal;HPM_P1;HPM_P2
2022/06/28 00:00:31;;;;;;;2.75;2.65;;;20.80;82.40;;;;;;5048830;28;20188;-77
2022/06/28 00:02:57;;;;;;;3.50;3.33;;;20.80;82.30;;;;;;5044665;28;20221;-77
2022/06/28 00:05:22;;;;;;;3.53;3.22;;;20.80;82.80;;;;;;5043828;28;20255;-78
2022/06/28 00:07:48;;;;;;;4.57;3.13;;;20.70;82.80;;;;;;5045186;28;20183;-77
2022/06/28 00:10:16;;;;;;;2.92;2.80;;;20.60;82.30;;;;;;5053212;28;20179;-76
2022/06/28 00:12:42;;;;;;;3.45;3.30;;;20.60;82.00;;;;;;5051668;28;20187;-76
2022/06/28 00:17:55;;;;;;;3.70;3.20;;;20.50;81.40;;;;;;5051087;28;20253;-77
2022/06/28 00:20:22;;;;;;;3.75;2.67;;;20.50;81.20;;;;;;5050409;28;20755;-77
2022/06/28 00:22:49;;;;;;;2.97;2.85;;;20.40;81.40;;;;;;5050192;28;20214;-77
2022/06/28 00:25:15;;;;;;;3.53;3.22;;;20.40;81.20;;;;;;5051992;28;20188;-75
2022/06/28 00:27:41;;;;;;;3.35;3.17;;;20.40;82.20;;;;;;5054278;28;20209;-76
2022/06/28 00:30:08;;;;;;;3.63;3.45;;;20.40;82.80;;;;;;5056350;28;20194;-76
2022/06/28 00:32:34;;;;;;;3.22;3.03;;;20.30;81.70;;;;;;5058103;28;20183;-76
2022/06/28 00:35:00;;;;;;;3.17;3.08;;;20.30;82.10;;;;;;5057491;28;20248;-75
2022/06/28 00:37:27;;;;;;;3.08;2.97;;;20.30;81.60;;;;;;5059327;28;20183;-76
2022/06/28 00:39:53;;;;;;;3.63;3.42;;;20.30;81.40;;;;;;5052871;28;20793;-75
2022/06/28 00:42:19;;;;;;;3.97;3.03;;;20.20;81.80;;;;;;5052981;28;20253;-75
2022/06/28 00:44:46;;;;;;;3.92;3.63;;;20.20;81.30;;;;;;5053851;28;20184;-75
2022/06/28 00:47:13;;;;;;;2.65;2.58;;;20.20;81.80;;;;;;5047537;28;20237;-75
2022/06/28 00:49:41;;;;;;;3.53;3.33;;;20.20;82.40;;;;;;5051962;28;20182;-75
2022/06/28 00:52:08;;;;;;;3.60;3.40;;;20.20;82.00;;;;;;5052884;28;20229;-75
2022/06/28 00:54:34;;;;;;;4.93;3.85;;;20.20;82.10;;;;;;5047132;28;20179;-75
2022/06/28 00:57:00;;;;;;;3.35;3.15;;;20.20;82.50;;;;;;5053378;28;20233;-75
2022/06/28 00:59:26;;;;;;;3.35;3.25;;;20.20;83.20;;;;;;5055121;28;20187;-75
2022/06/28 01:01:52;;;;;;;3.67;3.38;;;20.20;83.70;;;;;;5051884;28;20212;-76
2022/06/28 01:04:17;;;;;;;3.20;3.10;;;20.20;83.10;;;;;;5054634;28;20187;-76
2022/06/28 01:06:44;;;;;;;3.90;3.70;;;20.10;83.40;;;;;;5048926;28;20597;-76
2022/06/28 01:09:10;;;;;;;3.90;3.40;;;20.10;82.80;;;;;;5051337;28;20857;-76
2022/06/28 01:11:36;;;;;;;3.97;3.63;;;20.10;82.70;;;;;;5050263;28;20194;-76
2022/06/28 01:14:07;;;;;;;3.40;3.30;;;20.00;83.20;;;;;;5044035;28;20205;-75
2022/06/28 01:16:34;;;;;;;3.70;3.55;;;20.00;83.70;;;;;;5077106;28;20198;-76
2022/06/28 01:19:00;;;;;;;4.18;3.75;;;20.00;83.90;;;;;;5055360;28;20183;-77
2022/06/28 01:21:28;;;;;;;3.65;3.53;;;20.00;84.10;;;;;;5053022;28;20602;-76
2022/06/28 01:23:54;;;;;;;3.67;3.47;;;20.00;83.60;;;;;;5055480;28;20280;-76
2022/06/28 01:26:21;;;;;;;4.47;4.15;;;19.90;83.80;;;;;;5041015;28;20184;-75
2022/06/28 01:28:49;;;;;;;3.38;3.20;;;19.90;84.40;;;;;;5047510;28;20194;-76
2022/06/28 01:31:16;;;;;;;3.83;3.50;;;19.90;83.70;;;;;;5052050;28;20175;-76
2022/06/28 01:33:42;;;;;;;3.15;3.05;;;19.80;83.60;;;;;;5047569;28;20692;-77
2022/06/28 01:36:09;;;;;;;3.95;3.75;;;19.80;83.90;;;;;;5046329;28;20195;-77
2022/06/28 01:38:36;;;;;;;3.30;3.20;;;19.80;84.20;;;;;;5052962;28;20190;-76
2022/06/28 01:41:01;;;;;;;3.30;3.10;;;19.70;84.80;;;;;;5049711;28;20241;-76
2022/06/28 01:43:29;;;;;;;3.42;3.22;;;19.70;84.90;;;;;;5058424;28;20737;-76
2022/06/28 01:45:55;;;;;;;3.63;3.42;;;19.70;84.50;;;;;;5047328;28;20203;-77
2022/06/28 01:48:21;;;;;;;5.63;4.00;;;19.70;84.10;;;;;;5052122;28;20210;-77
2022/06/28 01:50:48;;;;;;;3.72;3.53;;;19.60;84.20;;;;;;5043110;28;20186;-77
2022/06/28 01:53:14;;;;;;;2.92;2.83;;;19.60;83.80;;;;;;5048439;28;20245;-76
2022/06/28 01:55:41;;;;;;;3.05;2.83;;;19.60;84.70;;;;;;5052750;28;20206;-77
2022/06/28 01:58:07;;;;;;;3.85;3.58;;;19.60;84.50;;;;;;5044348;28;20191;-76
2022/06/28 02:00:33;;;;;;;3.38;3.08;;;19.60;84.60;;;;;;5049904;28;20179;-76
2022/06/28 02:02:59;;;;;;;5.05;3.53;;;19.50;84.30;;;;;;5052513;28;20220;-76
2022/06/28 02:05:25;;;;;;;3.13;3.03;;;19.50;84.50;;;;;;5051770;28;20909;-75
2022/06/28 02:07:51;;;;;;;3.08;2.97;;;19.50;84.60;;;;;;5051752;28;20661;-76
2022/06/28 02:10:19;;;;;;;3.40;3.20;;;19.50;85.00;;;;;;5053301;28;20175;-76
2022/06/28 02:12:45;;;;;;;3.50;3.30;;;19.50;84.80;;;;;;5057295;28;20684;-76
2022/06/28 02:15:12;;;;;;;3.53;3.22;;;19.50;84.70;;;;;;5049279;28;20195;-77
2022/06/28 02:17:38;;;;;;;3.47;3.28;;;19.50;84.70;;;;;;5049138;28;20180;-76
2022/06/28 02:20:04;;;;;;;4.15;3.97;;;19.40;84.50;;;;;;5055271;28;20894;-76
2022/06/28 02:22:30;;;;;;;3.75;3.55;;;19.40;85.00;;;;;;5047828;28;20219;-75
2022/06/28 02:24:56;;;;;;;3.55;3.42;;;19.40;84.90;;;;;;5046314;28;20236;-75
2022/06/28 02:27:22;;;;;;;3.47;3.25;;;19.40;85.20;;;;;;5046688;28;20242;-76
2022/06/28 02:29:48;;;;;;;3.53;3.38;;;19.30;85.30;;;;;;5051143;28;20205;-76
2022/06/28 02:32:13;;;;;;;4.05;3.65;;;19.30;85.00;;;;;;5050481;28;20264;-76
2022/06/28 02:40:21;;;;;;;3.60;3.40;;;19.30;85.40;;;;;;5048585;28;20276;-75
2022/06/28 02:42:52;;;;;;;3.72;3.47;;;19.20;85.20;;;;;;5051441;28;20654;-75
2022/06/28 02:45:18;;;;;;;3.50;3.40;;;19.20;85.30;;;;;;5047308;28;20278;-76
2022/06/28 02:47:44;;;;;;;4.10;3.45;;;19.20;85.30;;;;;;5053340;28;20176;-77
2022/06/28 02:50:10;;;;;;;3.72;3.50;;;19.20;85.40;;;;;;5043789;28;20187;-76
2022/06/28 02:52:36;;;;;;;7.45;3.80;;;19.20;85.50;;;;;;5053267;28;20186;-76
2022/06/28 02:55:02;;;;;;;3.53;3.42;;;19.10;85.90;;;;;;5050251;28;20241;-76
2022/06/28 02:57:28;;;;;;;3.20;3.00;;;19.10;86.00;;;;;;5043940;28;20188;-76
2022/06/28 02:59:54;;;;;;;3.67;3.47;;;19.10;85.80;;;;;;5044459;28;20194;-76
2022/06/28 03:02:20;;;;;;;3.28;3.17;;;19.10;86.10;;;;;;5044993;28;20211;-76
2022/06/28 03:04:45;;;;;;;3.60;3.40;;;19.10;86.50;;;;;;5041191;28;20184;-76
2022/06/28 03:07:11;;;;;;;4.00;3.80;;;19.00;85.90;;;;;;5051910;28;20179;-76
2022/06/28 03:09:37;;;;;;;3.40;3.22;;;19.00;85.80;;;;;;5053404;28;20194;-76
2022/06/28 03:12:04;;;;;;;3.28;3.15;;;19.00;86.10;;;;;;5053736;28;21018;-76
2022/06/28 03:14:30;;;;;;;4.18;3.97;;;19.00;86.70;;;;;;5044874;28;20207;-76
2022/06/28 03:16:56;;;;;;;3.83;3.65;;;19.00;86.60;;;;;;5043744;28;20194;-76
2022/06/28 03:19:22;;;;;;;3.63;3.45;;;19.00;86.50;;;;;;5050603;28;20184;-77
2022/06/28 03:21:47;;;;;;;3.25;3.15;;;19.00;86.10;;;;;;5049923;28;20188;-76
2022/06/28 03:24:13;;;;;;;3.80;3.55;;;19.00;86.10;;;;;;5052318;28;20581;-76
2022/06/28 03:26:38;;;;;;;3.90;3.70;;;19.00;86.40;;;;;;5047928;28;20187;-76
2022/06/28 03:29:04;;;;;;;3.45;3.20;;;19.00;86.50;;;;;;5048457;28;20175;-76
2022/06/28 03:31:31;;;;;;;3.47;3.17;;;19.00;86.90;;;;;;5053067;28;20192;-76
2022/06/28 03:33:57;;;;;;;3.63;3.42;;;19.00;87.00;;;;;;5050576;28;20239;-76
2022/06/28 03:36:22;;;;;;;4.72;3.85;;;19.00;86.70;;;;;;5048855;28;20883;-75
2022/06/28 03:38:49;;;;;;;3.53;3.35;;;19.00;86.70;;;;;;5055485;28;20179;-76
2022/06/28 03:41:22;;;;;;;3.42;3.22;;;19.00;86.30;;;;;;5047399;28;20187;-76
2022/06/28 03:43:49;;;;;;;3.55;3.25;;;19.00;86.20;;;;;;5046925;28;20351;-76
2022/06/28 03:46:15;;;;;;;3.58;3.38;;;19.00;86.50;;;;;;5047760;28;20180;-76
2022/06/28 03:48:41;;;;;;;3.03;2.90;;;19.10;86.60;;;;;;5046059;28;20182;-76
2022/06/28 03:51:07;;;;;;;3.47;3.17;;;19.10;86.50;;;;;;5044310;28;20198;-77
2022/06/28 03:53:33;;;;;;;8.82;3.60;;;19.10;86.50;;;;;;5049746;28;20192;-76
2022/06/28 03:55:58;;;;;;;3.83;3.53;;;19.10;86.60;;;;;;5050870;28;20614;-76
2022/06/28 03:58:24;;;;;;;4.25;3.95;;;19.10;86.60;;;;;;5052637;28;20261;-77
2022/06/28 04:00:50;;;;;;;3.47;3.20;;;19.20;87.50;;;;;;5049631;28;20194;-77
2022/06/28 04:03:15;;;;;;;5.00;4.60;;;19.20;87.10;;;;;;5052368;28;20218;-77
2022/06/28 04:05:41;;;;;;;4.70;4.35;;;19.20;86.50;;;;;;5051324;28;20178;-77
2022/06/28 04:08:08;;;;;;;5.88;5.38;;;19.20;86.40;;;;;;5050682;28;20214;-77
2022/06/28 04:10:34;;;;;;;5.55;5.10;;;19.20;86.20;;;;;;5053119;28;20195;-76
2022/06/28 04:13:00;;;;;;;4.57;4.32;;;19.20;86.50;;;;;;5049910;28;20190;-75
2022/06/28 04:15:26;;;;;;;3.30;3.10;;;19.30;87.40;;;;;;5053512;28;20585;-75
2022/06/28 04:17:51;;;;;;;3.42;3.20;;;19.30;86.90;;;;;;5054857;28;20620;-75
2022/06/28 04:20:17;;;;;;;7.13;4.53;;;19.30;87.00;;;;;;5050653;28;20262;-73
2022/06/28 04:22:43;;;;;;;5.40;5.00;;;19.40;87.20;;;;;;5051463;28;20207;-74
2022/06/28 04:25:09;;;;;;;6.85;5.75;;;19.40;87.10;;;;;;5050042;28;20681;-74
2022/06/28 04:27:35;;;;;;;5.60;5.13;;;19.50;87.20;;;;;;5048187;28;20184;-75
2022/06/28 04:30:03;;;;;;;5.85;5.35;;;19.50;87.70;;;;;;5046652;28;20187;-72
2022/06/28 04:32:29;;;;;;;4.70;4.30;;;19.50;86.80;;;;;;5052060;28;20187;-74
2022/06/28 04:34:55;;;;;;;4.38;3.72;;;19.50;86.50;;;;;;5054109;28;20186;-74
2022/06/28 04:37:21;;;;;;;4.93;4.47;;;19.50;86.80;;;;;;5054594;28;20194;-75
2022/06/28 04:39:47;;;;;;;4.28;3.95;;;19.60;86.60;;;;;;5048514;28;20184;-74
2022/06/28 04:42:13;;;;;;;4.53;4.25;;;19.60;86.50;;;;;;5048527;28;20214;-74
2022/06/28 04:44:39;;;;;;;4.80;4.30;;;19.60;86.50;;;;;;5051204;28;20191;-75
2022/06/28 04:47:05;;;;;;;6.05;4.68;;;19.60;86.70;;;;;;5051302;28;20192;-74
2022/06/28 04:49:31;;;;;;;4.18;3.88;;;19.70;86.10;;;;;;5045412;28;20209;-71
2022/06/28 04:51:56;;;;;;;4.72;4.30;;;19.70;86.50;;;;;;5050703;28;20584;-72
2022/06/28 04:54:22;;;;;;;5.07;4.70;;;19.80;86.50;;;;;;5051695;28;20263;-72
2022/06/28 04:56:48;;;;;;;5.18;4.82;;;19.80;86.20;;;;;;5042063;28;20184;-72
2022/06/28 04:59:15;;;;;;;5.00;4.53;;;19.80;86.10;;;;;;5051481;28;20183;-72
2022/06/28 05:01:41;;;;;;;4.90;4.40;;;19.90;85.90;;;;;;5045476;28;20251;-72
2022/06/28 05:04:07;;;;;;;6.93;5.93;;;19.90;86.20;;;;;;5043102;28;20187;-75
2022/06/28 05:06:33;;;;;;;7.65;6.30;;;20.00;86.30;;;;;;5051466;28;20183;-74
2022/06/28 05:08:58;;;;;;;5.90;5.25;;;20.00;86.20;;;;;;5046917;28;20195;-74
2022/06/28 05:11:25;;;;;;;6.78;5.15;;;20.00;85.90;;;;;;5040175;28;20225;-75
2022/06/28 05:13:50;;;;;;;4.43;4.13;;;20.10;85.90;;;;;;5043517;28;20200;-76
2022/06/28 05:16:16;;;;;;;6.05;5.55;;;20.10;85.90;;;;;;5049214;28;20301;-74
2022/06/28 05:18:42;;;;;;;5.97;5.22;;;20.20;85.90;;;;;;5048593;28;20179;-71
2022/06/28 05:21:08;;;;;;;6.47;5.28;;;20.20;85.60;;;;;;5047014;28;20733;-74
2022/06/28 05:23:33;;;;;;;4.85;4.38;;;20.20;85.50;;;;;;5049075;28;20671;-73
2022/06/28 05:25:59;;;;;;;11.43;5.82;;;20.20;85.50;;;;;;5046343;28;20215;-75
2022/06/28 05:28:25;;;;;;;7.75;6.97;;;20.30;86.00;;;;;;5048549;28;20183;-72
2022/06/28 05:30:51;;;;;;;5.50;5.13;;;20.10;85.80;;;;;;5049488;28;20187;-74
2022/06/28 05:33:16;;;;;;;5.70;5.30;;;20.20;85.70;;;;;;5052904;28;20197;-70
2022/06/28 05:35:42;;;;;;;6.93;4.90;;;20.20;85.50;;;;;;5055572;28;20679;-73
2022/06/28 05:38:08;;;;;;;4.88;4.35;;;20.30;85.30;;;;;;5049480;28;20237;-74
2022/06/28 05:40:33;;;;;;;4.97;4.50;;;20.30;85.30;;;;;;5053473;28;20211;-75
2022/06/28 05:42:59;;;;;;;5.20;4.80;;;20.40;85.10;;;;;;5051718;28;20210;-75
2022/06/28 05:45:25;;;;;;;10.75;6.45;;;20.50;85.50;;;;;;5047308;28;20183;-75
2022/06/28 05:47:51;;;;;;;7.80;5.75;;;20.50;85.30;;;;;;5044906;28;20730;-73
2022/06/28 05:50:19;;;;;;;9.70;6.65;;;20.60;85.20;;;;;;5053085;28;20193;-74
2022/06/28 05:52:46;;;;;;;6.75;6.15;;;20.60;85.60;;;;;;5050320;28;20186;-75
2022/06/28 05:55:12;;;;;;;5.43;5.03;;;20.60;85.10;;;;;;5049677;28;20206;-75
2022/06/28 05:57:38;;;;;;;4.78;4.50;;;20.70;84.90;;;;;;5053926;28;20657;-75
2022/06/28 06:00:04;;;;;;;10.05;4.82;;;20.70;84.80;;;;;;5052097;28;20187;-74
2022/06/28 06:02:30;;;;;;;5.78;5.20;;;20.80;84.90;;;;;;5049414;28;20207;-74
2022/06/28 06:04:56;;;;;;;4.22;4.03;;;20.80;84.70;;;;;;5048775;28;20190;-74
2022/06/28 06:07:22;;;;;;;4.88;4.57;;;20.90;84.70;;;;;;5052759;28;20183;-74
2022/06/28 06:09:48;;;;;;;4.55;4.15;;;21.00;84.60;;;;;;5047218;28;20188;-73
2022/06/28 06:12:13;;;;;;;4.82;4.43;;;21.00;84.40;;;;;;5049721;28;20270;-74
2022/06/28 06:14:39;;;;;;;4.35;4.00;;;21.10;84.10;;;;;;5050915;28;20696;-74
2022/06/28 06:17:05;;;;;;;4.20;4.00;;;21.20;84.00;;;;;;5055308;28;20519;-74
2022/06/28 06:19:30;;;;;;;4.28;3.65;;;21.30;83.50;;;;;;5050349;28;20696;-74
2022/06/28 06:21:56;;;;;;;3.25;3.15;;;21.30;83.20;;;;;;5047534;28;20184;-74
2022/06/28 06:24:22;;;;;;;3.33;3.13;;;21.30;83.20;;;;;;5047002;28;20772;-75
2022/06/28 06:26:48;;;;;;;4.13;3.50;;;21.40;83.20;;;;;;5040830;28;20175;-75
2022/06/28 06:29:13;;;;;;;3.90;3.65;;;21.40;83.20;;;;;;5054166;28;20298;-75
2022/06/28 06:31:39;;;;;;;3.97;3.67;;;21.50;83.20;;;;;;5051954;28;20182;-73
2022/06/28 06:34:06;;;;;;;4.13;3.92;;;21.50;83.10;;;;;;5053505;28;20183;-72
2022/06/28 06:36:34;;;;;;;3.72;3.53;;;21.60;83.00;;;;;;5049991;28;20290;-70
2022/06/28 06:39:00;;;;;;;4.40;3.42;;;21.60;83.00;;;;;;5065474;28;20191;-70
2022/06/28 06:41:25;;;;;;;4.60;4.20;;;21.70;82.90;;;;;;5049938;28;20186;-71
2022/06/28 06:43:52;;;;;;;4.10;3.13;;;21.80;82.90;;;;;;5052157;28;20671;-73
2022/06/28 06:46:18;;;;;;;4.28;4.07;;;21.90;82.90;;;;;;5053228;28;20278;-73
2022/06/28 06:48:44;;;;;;;4.15;3.40;;;21.90;83.00;;;;;;5045482;28;20255;-73
2022/06/28 06:51:10;;;;;;;3.55;3.30;;;22.00;83.00;;;;;;5042055;28;20206;-73
2022/06/28 06:53:36;;;;;;;3.72;3.63;;;22.10;82.80;;;;;;5040238;28;20198;-74
2022/06/28 06:56:02;;;;;;;3.85;3.65;;;22.20;82.50;;;;;;5050458;28;20183;-73
2022/06/28 06:58:27;;;;;;;4.15;3.75;;;22.30;82.40;;;;;;5051000;28;20750;-72
2022/06/28 07:00:54;;;;;;;3.83;3.63;;;22.30;82.50;;;;;;5046478;28;20196;-73
2022/06/28 07:03:20;;;;;;;4.22;3.88;;;22.40;82.50;;;;;;5045439;28;20289;-72
2022/06/28 07:05:46;;;;;;;4.82;3.53;;;22.50;82.30;;;;;;5045449;28;20190;-72
2022/06/28 07:08:11;;;;;;;4.10;3.70;;;22.60;82.30;;;;;;5044208;28;20591;-72
2022/06/28 07:10:37;;;;;;;4.00;3.53;;;22.60;82.20;;;;;;5047656;28;20188;-72
2022/06/28 07:13:03;;;;;;;3.50;3.30;;;22.70;81.70;;;;;;5049311;28;20183;-72
2022/06/28 07:15:29;;;;;;;6.03;3.90;;;22.80;81.50;;;;;;5050052;28;20211;-72
2022/06/28 07:17:55;;;;;;;3.95;3.67;;;22.90;81.60;;;;;;5052769;28;20257;-72
2022/06/28 07:20:20;;;;;;;3.78;3.60;;;22.90;81.20;;;;;;5046914;28;20189;-72
2022/06/28 07:22:46;;;;;;;3.30;3.17;;;23.00;81.10;;;;;;5044556;28;20207;-72
2022/06/28 07:25:13;;;;;;;3.25;3.15;;;23.10;80.30;;;;;;5043558;28;20194;-72
2022/06/28 07:27:40;;;;;;;3.50;3.40;;;23.20;80.20;;;;;;5035292;28;20315;-72
2022/06/28 07:30:06;;;;;;;3.50;3.40;;;23.20;79.40;;;;;;5076435;28;20274;-73
2022/06/28 07:32:32;;;;;;;3.50;3.40;;;23.30;78.60;;;;;;5047594;28;20187;-72
2022/06/28 07:34:58;;;;;;;3.35;3.25;;;23.40;78.10;;;;;;5045585;28;20582;-72
2022/06/28 07:37:24;;;;;;;2.92;2.83;;;23.40;78.10;;;;;;5040307;28;20270;-72
2022/06/28 07:39:51;;;;;;;3.78;3.58;;;23.50;78.70;;;;;;5049455;28;20183;-73
2022/06/28 07:42:17;;;;;;;5.00;3.60;;;23.60;78.30;;;;;;5042376;28;20212;-72
2022/06/28 07:44:43;;;;;;;5.55;3.47;;;23.70;78.20;;;;;;5048739;28;20563;-72
2022/06/28 07:47:09;;;;;;;4.72;4.03;;;23.80;78.60;;;;;;5046606;28;20182;-72
2022/06/28 07:52:34;;;;;;;3.13;3.10;;;24.00;77.40;;;;;;5041815;28;20279;-72
2022/06/28 07:55:01;;;;;;;3.28;3.17;;;24.00;78.00;;;;;;5044955;28;20699;-72
2022/06/28 07:57:27;;;;;;;3.10;3.00;;;24.20;77.40;;;;;;5049451;28;20266;-73
2022/06/28 07:59:53;;;;;;;3.00;2.92;;;24.20;77.70;;;;;;5042471;28;20258;-73
2022/06/28 08:02:23;;;;;;;2.95;2.85;;;24.30;77.50;;;;;;5039064;28;20261;-72
2022/06/28 08:04:49;;;;;;;3.38;3.28;;;24.40;76.70;;;;;;5060891;28;20184;-72
2022/06/28 08:07:15;;;;;;;3.53;3.42;;;24.50;77.20;;;;;;5045664;28;20258;-72
2022/06/28 08:09:40;;;;;;;3.10;3.00;;;24.60;77.40;;;;;;5044132;28;20258;-72
2022/06/28 08:12:07;;;;;;;3.20;3.00;;;24.70;77.50;;;;;;5041871;28;20183;-73
2022/06/28 08:14:33;;;;;;;3.00;2.80;;;24.80;76.00;;;;;;5046537;28;20697;-73
2022/06/28 08:16:58;;;;;;;2.78;2.75;;;24.80;76.60;;;;;;5044900;28;20269;-73
2022/06/28 08:19:24;;;;;;;2.70;2.60;;;24.90;76.50;;;;;;5050038;28;20229;-73
2022/06/28 08:21:50;;;;;;;2.90;2.72;;;25.00;75.70;;;;;;5038820;28;20632;-73
2022/06/28 08:24:16;;;;;;;3.10;3.00;;;25.10;76.00;;;;;;5042620;28;20270;-73
2022/06/28 08:26:43;;;;;;;2.67;2.63;;;25.20;75.30;;;;;;5042987;28;20183;-73
2022/06/28 08:29:14;;;;;;;3.45;3.25;;;25.20;75.50;;;;;;5049584;28;20232;-73
2022/06/28 08:31:40;;;;;;;2.80;2.70;;;25.30;75.30;;;;;;5041080;28;20187;-72
2022/06/28 08:34:06;;;;;;;4.60;3.55;;;;;;;;;;5050276;28;20233;-72
2022/06/28 08:36:33;;;;;;;2.97;2.88;;;25.40;74.90;;;;;;5044452;28;20214;-72
2022/06/28 08:38:59;;;;;;;2.55;2.45;;;25.50;72.80;;;;;;5051448;28;20241;-73
2022/06/28 08:41:27;;;;;;;2.50;2.50;;;25.60;73.40;;;;;;5046990;28;20211;-73
2022/06/28 08:43:54;;;;;;;2.75;2.65;;;25.70;73.90;;;;;;5047762;28;20214;-72
2022/06/28 08:46:21;;;;;;;2.13;2.05;;;25.70;74.30;;;;;;5050790;28;20180;-72
2022/06/28 08:48:52;;;;;;;2.35;2.33;;;25.80;73.90;;;;;;5050278;28;20179;-73
2022/06/28 08:51:19;;;;;;;2.90;2.80;;;25.90;73.40;;;;;;5048370;28;20186;-72
2022/06/28 08:53:47;;;;;;;2.70;2.60;;;26.00;73.00;;;;;;5045113;28;20198;-73
2022/06/28 08:56:13;;;;;;;3.10;3.00;;;26.00;72.60;;;;;;5043101;28;20176;-72
2022/06/28 08:58:43;;;;;;;2.83;2.72;;;26.20;72.60;;;;;;5046715;28;20195;-73
2022/06/28 09:01:13;;;;;;;2.38;2.28;;;26.30;73.60;;;;;;5044572;28;20397;-73
2022/06/28 09:03:39;;;;;;;2.30;2.30;;;26.40;71.30;;;;;;5041248;28;20238;-73
2022/06/28 09:06:05;;;;;;;2.53;2.42;;;26.50;71.20;;;;;;5049942;28;20210;-73
2022/06/28 09:08:32;;;;;;;2.65;2.33;;;26.50;72.40;;;;;;5050683;28;20210;-73
2022/06/28 09:10:58;;;;;;;2.22;2.22;;;26.60;72.30;;;;;;5049647;28;20625;-72
2022/06/28 09:13:24;;;;;;;2.50;2.45;;;26.80;71.40;;;;;;5049895;28;20175;-72
2022/06/28 09:15:55;;;;;;;2.30;2.30;;;26.90;70.30;;;;;;5052120;28;20190;-72
2022/06/28 09:18:24;;;;;;;2.30;2.30;;;27.00;71.00;;;;;;5051928;28;20836;-73
2022/06/28 09:20:57;;;;;;;2.28;2.13;;;27.10;70.80;;;;;;5050925;28;20179;-73
2022/06/28 09:23:31;;;;;;;2.35;2.10;;;27.20;70.20;;;;;;5053773;28;20207;-72
2022/06/28 09:26:06;;;;;;;2.15;1.88;;;27.40;70.40;;;;;;5052789;28;20182;-73
2022/06/28 09:28:33;;;;;;;2.20;2.10;;;27.50;70.30;;;;;;5050179;28;20198;-72
2022/06/28 09:31:24;;;;;;;2.47;2.38;;;27.70;69.30;;;;;;5047028;28;20184;-73
2022/06/28 09:34:05;;;;;;;2.25;2.20;;;27.80;67.60;;;;;;5049225;28;20197;-72
2022/06/28 09:36:40;;;;;;;2.40;2.30;;;27.90;68.40;;;;;;5047873;28;20212;-74
2022/06/28 09:39:29;;;;;;;2.55;2.35;;;28.00;67.00;;;;;;5045532;28;20178;-72
2022/06/28 09:41:56;;;;;;;2.35;2.35;;;28.10;66.10;;;;;;4985575;28;20198;-73
2022/06/28 09:44:27;;;;;;;2.60;2.50;;;28.10;67.60;;;;;;5002472;28;20202;-73
2022/06/28 09:46:57;;;;;;;3.08;2.92;;;28.20;66.60;;;;;;4995692;28;20195;-73
2022/06/28 09:49:28;;;;;;;2.50;2.50;;;28.20;67.60;;;;;;5000402;28;20216;-73
2022/06/28 09:51:56;;;;;;;2.63;2.63;;;28.30;68.60;;;;;;4983218;28;20264;-74
2022/06/28 09:54:25;;;;;;;2.63;2.53;;;28.50;68.60;;;;;;5006266;28;20407;-74
2022/06/28 09:56:55;;;;;;;3.00;2.90;;;28.60;67.30;;;;;;4999793;28;20196;-73
2022/06/28 09:59:27;;;;;;;2.55;2.45;;;28.70;66.20;;;;;;5007170;28;20224;-74
2022/06/28 10:01:54;;;;;;;4.22;2.25;;;28.90;66.30;;;;;;5006923;28;20363;-73
2022/06/28 10:04:22;;;;;;;2.60;2.50;;;29.00;65.30;;;;;;4996201;28;20692;-74
2022/06/28 10:06:49;;;;;;;2.40;2.35;;;29.10;65.50;;;;;;4993277;28;20281;-74
2022/06/28 10:09:17;;;;;;;2.83;2.63;;;29.20;66.40;;;;;;5008104;28;20188;-73
2022/06/28 10:17:29;;;;;;;2.20;2.20;;;29.70;65.70;;;;;;5004365;28;20187;-74
2022/06/28 10:19:57;;;;;;;2.72;2.63;;;29.80;63.90;;;;;;5040588;28;20218;-73
2022/06/28 10:22:23;;;;;;;2.75;2.65;;;30.00;63.90;;;;;;5050338;28;20214;-74
2022/06/28 10:24:50;;;;;;;2.38;2.38;;;30.20;63.30;;;;;;5050341;28;20657;-74
2022/06/28 10:27:15;;;;;;;2.45;2.45;;;30.40;63.30;;;;;;5049364;28;20262;-73
2022/06/28 10:30:17;;;;;;;4.35;2.95;;;30.60;61.40;;;;;;5051400;28;20274;-73
2022/06/28 10:32:51;;;;;;;2.33;2.33;;;30.80;61.00;;;;;;5023564;28;20231;-74
2022/06/28 10:35:47;;;;;;;2.80;2.70;;;30.80;62.50;;;;;;5029188;28;20199;-75
2022/06/28 10:38:12;;;;;;;3.00;2.90;;;30.90;61.70;;;;;;4924897;29;20191;-75
2022/06/28 10:40:47;;;;;;;3.08;2.97;;;31.10;61.60;;;;;;4939809;28;20225;-73
2022/06/28 10:43:29;;;;;;;4.28;2.45;;;31.40;61.90;;;;;;4940140;28;20308;-74
2022/06/28 10:46:00;;;;;;;2.92;2.83;;;31.60;61.70;;;;;;4940818;28;20661;-73
2022/06/28 10:48:30;;;;;;;2.88;2.88;;;32.00;62.40;;;;;;4941821;28;20254;-72
2022/06/28 10:51:00;;;;;;;2.67;2.58;;;32.20;61.90;;;;;;4941928;28;20186;-73
2022/06/28 10:53:26;;;;;;;2.88;2.78;;;32.50;60.30;;;;;;4938854;28;20209;-73
2022/06/28 10:56:11;;;;;;;3.08;2.97;;;32.60;59.50;;;;;;4920704;28;20284;-72
2022/06/28 10:59:09;;;;;;;3.10;3.00;;;32.80;59.60;;;;;;4937313;28;20187;-71
2022/06/28 11:01:43;;;;;;;2.75;2.72;;;32.60;59.40;;;;;;4940498;28;20561;-70
2022/06/28 11:04:20;;;;;;;2.95;2.78;;;32.40;61.70;;;;;;4940751;28;20679;-72
2022/06/28 11:06:47;;;;;;;2.83;2.70;;;32.30;61.30;;;;;;4940810;28;20248;-73
2022/06/28 11:09:28;;;;;;;2.30;2.30;;;32.10;59.30;;;;;;4945150;28;20232;-72
2022/06/28 11:12:06;;;;;;;2.80;2.72;;;32.10;60.70;;;;;;4959350;28;20260;-71
2022/06/28 11:14:36;;;;;;;2.28;2.28;;;31.90;60.80;;;;;;4986671;28;20216;-72
2022/06/28 11:17:22;;;;;;;2.78;2.20;;;31.80;61.10;;;;;;5048392;28;20179;-72
2022/06/28 11:19:53;;;;;;;2.97;2.88;;;31.50;60.80;;;;;;5042675;28;20192;-72
2022/06/28 11:22:21;;;;;;;2.53;2.42;;;31.30;61.00;;;;;;5064202;28;20239;-72
2022/06/28 11:24:47;;;;;;;2.50;2.38;;;31.30;60.60;;;;;;5051941;28;20178;-71
2022/06/28 11:27:22;;;;;;;2.00;2.00;;;31.60;60.90;;;;;;5049984;28;20185;-72
2022/06/28 11:30:00;;;;;;;2.50;2.50;;;32.30;59.70;;;;;;5049180;28;20174;-72
2022/06/28 11:32:30;;;;;;;2.30;2.20;;;32.70;57.90;;;;;;5046331;28;20182;-72
2022/06/28 11:34:59;;;;;;;2.03;2.03;;;33.10;57.90;;;;;;5048812;28;20186;-72
2022/06/28 11:37:25;;;;;;;2.53;2.40;;;33.30;57.60;;;;;;5048722;28;20191;-71
2022/06/28 11:40:00;;;;;;;2.30;2.30;;;33.40;58.60;;;;;;5049980;28;20193;-72
2022/06/28 11:42:26;;;;;;;2.72;2.63;;;33.40;57.10;;;;;;5048065;28;20229;-74
2022/06/28 11:44:52;;;;;;;2.97;2.88;;;33.20;57.30;;;;;;5043949;28;20645;-73
2022/06/28 11:47:20;;;;;;;2.33;2.17;;;33.10;58.30;;;;;;5043832;28;20217;-72
2022/06/28 11:49:51;;;;;;;2.38;2.38;;;33.10;57.70;;;;;;5038554;28;20186;-71
2022/06/28 11:52:17;;;;;;;2.20;2.20;;;33.40;58.20;;;;;;5037095;28;20580;-73
2022/06/28 11:54:45;;;;;;;2.60;2.60;;;34.00;57.40;;;;;;5040658;28;20186;-73
2022/06/28 11:57:17;;;;;;;2.25;2.20;;;34.60;55.90;;;;;;5045656;28;20633;-74
2022/06/28 11:59:58;;;;;;;2.50;2.50;;;35.40;54.00;;;;;;5045629;28;20287;-74
2022/06/28 12:02:39;;;;;;;2.42;2.42;;;36.10;52.80;;;;;;5038192;28;20306;-73
2022/06/28 12:05:05;;;;;;;2.25;2.20;;;36.70;54.50;;;;;;5044824;28;20537;-73
2022/06/28 12:07:41;;;;;;;2.60;2.53;;;37.10;53.00;;;;;;5043625;28;20270;-72
2022/06/28 12:10:21;;;;;;;3.20;2.17;;;37.60;51.80;;;;;;5044062;28;20600;-74
2022/06/28 12:12:47;;;;;;;2.50;2.30;;;38.00;50.00;;;;;;5045623;28;20187;-72
2022/06/28 12:15:13;;;;;;;2.42;2.33;;;38.30;50.70;;;;;;5046635;28;20202;-72
2022/06/28 12:17:48;;;;;;;3.28;2.13;;;38.60;50.00;;;;;;5048727;28;20197;-73
2022/06/28 12:20:16;;;;;;;2.45;2.25;;;38.50;51.20;;;;;;5046974;28;20181;-73
2022/06/28 12:22:42;;;;;;;4.03;2.28;;;38.20;50.20;;;;;;5046131;28;20203;-72
2022/06/28 12:25:10;;;;;;;1.80;1.80;;;38.00;51.00;;;;;;5044406;28;20568;-72
2022/06/28 12:27:36;;;;;;;3.88;1.92;;;38.20;49.10;;;;;;5054064;28;20218;-72
2022/06/28 12:30:05;;;;;;;2.08;2.08;;;38.50;47.20;;;;;;5051960;28;20389;-72
2022/06/28 12:32:31;;;;;;;1.90;1.80;;;38.90;48.40;;;;;;5046369;28;20187;-72
2022/06/28 12:35:08;;;;;;;1.80;1.80;;;39.30;47.70;;;;;;5050921;28;20179;-72
2022/06/28 12:37:35;;;;;;;2.20;2.20;;;39.70;48.60;;;;;;5049782;28;20691;-72
2022/06/28 12:40:03;;;;;;;2.20;2.10;;;40.20;47.60;;;;;;5047597;28;20755;-73
2022/06/28 12:42:30;;;;;;;2.28;2.28;;;40.50;46.90;;;;;;5047716;28;20220;-73
2022/06/28 12:44:59;;;;;;;1.90;1.90;;;41.10;47.40;;;;;;5048067;28;20679;-72
2022/06/28 12:47:25;;;;;;;2.17;2.08;;;41.40;46.40;;;;;;5046603;28;20180;-72
2022/06/28 12:49:50;;;;;;;2.15;2.08;;;41.80;46.10;;;;;;5048567;28;20221;-72
2022/06/28 12:52:16;;;;;;;1.58;1.58;;;42.20;44.90;;;;;;5049140;28;20691;-73
2022/06/28 12:54:42;;;;;;;2.05;2.05;;;42.50;45.80;;;;;;5038913;28;20832;-73
2022/06/28 12:57:07;;;;;;;2.58;2.05;;;42.90;43.20;;;;;;5043270;28;20262;-72
2022/06/28 12:59:33;;;;;;;2.22;2.17;;;42.90;43.70;;;;;;5047294;28;20210;-73
2022/06/28 13:01:59;;;;;;;1.90;1.90;;;43.00;44.50;;;;;;5046709;28;20178;-73
2022/06/28 13:04:24;;;;;;;2.13;2.00;;;43.20;45.00;;;;;;5046240;28;20736;-73
2022/06/28 13:06:50;;;;;;;1.88;1.77;;;43.10;43.80;;;;;;5037884;28;20801;-73